createdAt,value
2022-09-06T00:02:22.846Z,20.99
2022-09-06T00:06:24.440Z,20.88
2022-09-06T00:10:27.639Z,20.79
2022-09-06T00:14:29.232Z,20.71
2022-09-06T00:18:30.782Z,20.67
2022-09-06T00:22:32.387Z,20.66
2022-09-06T00:26:33.993Z,20.67
2022-09-06T00:30:35.638Z,20.70
2022-09-06T00:34:37.209Z,20.71
2022-09-06T00:38:39.724Z,20.74
2022-09-06T00:42:41.279Z,20.76
2022-09-06T00:46:46.806Z,20.78
2022-09-06T00:50:51.412Z,20.78
2022-09-06T00:54:53.947Z,20.76
2022-09-06T00:58:55.574Z,20.74
2022-09-06T01:02:57.141Z,20.68
2022-09-06T01:07:30.075Z,20.58
2022-09-06T01:11:42.017Z,20.51
2022-09-06T01:16:11.804Z,20.45
2022-09-06T01:20:39.197Z,20.40
2022-09-06T01:24:57.044Z,20.40
2022-09-06T01:28:58.934Z,20.41
2022-09-06T01:33:03.788Z,20.42
2022-09-06T01:37:16.272Z,20.47
2022-09-06T01:41:18.222Z,20.52
2022-09-06T01:45:28.063Z,20.45
2022-09-06T01:49:48.245Z,20.25
2022-09-06T01:54:08.110Z,19.85
2022-09-06T01:58:37.136Z,19.61
2022-09-06T02:02:48.149Z,19.56
2022-09-06T02:07:00.915Z,19.48
2022-09-06T02:11:04.929Z,19.55
2022-09-06T02:15:11.660Z,19.63
2022-09-06T02:19:35.901Z,19.71
2022-09-06T02:23:42.747Z,19.79
2022-09-06T02:27:44.658Z,19.86
2022-09-06T02:32:01.160Z,19.95
2022-09-06T02:36:07.034Z,19.98
2022-09-06T02:40:10.410Z,20.09
2022-09-06T02:44:12.044Z,20.20
2022-09-06T02:48:14.572Z,20.31
2022-09-06T02:52:16.192Z,20.40
2022-09-06T02:56:17.919Z,20.47
2022-09-06T03:00:19.527Z,20.52
2022-09-06T03:04:21.890Z,20.44
2022-09-06T03:08:26.508Z,20.42
2022-09-06T03:12:28.215Z,20.41
2022-09-06T03:16:30.567Z,20.41
2022-09-06T03:20:36.451Z,20.35
2022-09-06T03:24:38.775Z,20.29
2022-09-06T03:28:40.738Z,20.19
2022-09-06T03:32:42.353Z,20.07
2022-09-06T03:36:43.956Z,19.92
2022-09-06T03:40:47.387Z,19.84
2022-09-06T03:44:49.053Z,19.76
2022-09-06T03:48:50.621Z,19.68
2022-09-06T03:52:52.332Z,19.68
2022-09-06T03:56:53.960Z,19.72
2022-09-06T04:01:07.627Z,19.68
2022-09-06T04:05:09.749Z,19.61
2022-09-06T04:09:11.428Z,19.48
2022-09-06T04:13:13.018Z,19.44
2022-09-06T04:17:14.802Z,19.42
2022-09-06T04:21:16.407Z,19.43
2022-09-06T04:25:18.103Z,19.38
2022-09-06T04:29:19.763Z,19.34
2022-09-06T04:33:25.800Z,19.33
2022-09-06T04:37:27.404Z,19.25
2022-09-06T04:41:28.964Z,19.16
2022-09-06T04:45:30.660Z,19.06
2022-09-06T04:49:32.303Z,19.00
2022-09-06T04:53:33.907Z,18.91
2022-09-06T04:57:35.604Z,18.84
2022-09-06T05:01:37.192Z,18.81
2022-09-06T05:05:38.814Z,18.81
2022-09-06T05:09:40.533Z,18.85
2022-09-06T05:13:42.395Z,18.88
2022-09-06T05:17:44.388Z,18.91
2022-09-06T05:21:46.170Z,18.92
2022-09-06T05:25:48.546Z,18.88
2022-09-06T05:29:50.092Z,18.82
2022-09-06T05:33:52.948Z,18.76
2022-09-06T05:37:54.515Z,18.78
2022-09-06T05:41:56.129Z,18.87
2022-09-06T05:45:57.837Z,18.98
2022-09-06T05:49:59.976Z,19.09
2022-09-06T05:54:01.621Z,19.21
2022-09-06T05:58:03.334Z,19.29
2022-09-06T06:02:08.132Z,19.33
2022-09-06T06:06:10.198Z,19.42
2022-09-06T06:10:11.893Z,19.47
2022-09-06T06:14:13.563Z,19.52
2022-09-06T06:18:15.392Z,19.59
2022-09-06T06:22:17.319Z,19.66
2022-09-06T06:26:19.249Z,19.70
2022-09-06T06:30:20.907Z,19.76
2022-09-06T06:34:22.579Z,19.83
2022-09-06T06:38:24.315Z,19.91
2022-09-06T06:42:26.014Z,19.98
2022-09-06T06:46:31.509Z,20.10
2022-09-06T06:50:33.119Z,20.24
2022-09-06T06:54:37.398Z,20.44
2022-09-06T06:58:39.012Z,20.68
2022-09-06T07:02:40.567Z,20.83
2022-09-06T07:11:13.732Z,21.09
2022-09-06T07:15:15.451Z,21.16
2022-09-06T07:28:05.906Z,21.81
2022-09-06T07:32:10.798Z,22.10
2022-09-06T07:36:12.599Z,22.12
2022-09-06T07:40:14.311Z,22.21
2022-09-06T07:44:16.198Z,22.35
2022-09-06T07:48:17.846Z,22.58
2022-09-06T07:56:41.051Z,23.25
2022-09-06T08:00:43.103Z,23.35
2022-09-06T08:04:48.604Z,23.43
2022-09-06T08:12:56.696Z,23.82
2022-09-06T08:16:58.368Z,23.97
2022-09-06T08:21:14.518Z,24.11
2022-09-06T08:25:16.216Z,24.16
2022-09-06T08:29:19.945Z,24.30
2022-09-06T08:33:22.048Z,24.65
2022-09-06T08:37:25.203Z,24.86
2022-09-06T08:41:37.162Z,24.95
2022-09-06T08:45:41.333Z,25.18
2022-09-06T08:49:46.264Z,25.25
2022-09-06T08:53:47.904Z,25.35
2022-09-06T08:58:01.195Z,25.62
2022-09-06T09:02:15.293Z,25.97
2022-09-06T09:06:17.046Z,26.18
2022-09-06T09:10:30.728Z,26.40
2022-09-06T09:14:38.033Z,26.64
2022-09-06T09:18:44.919Z,26.89
2022-09-06T09:22:47.046Z,26.90
2022-09-06T09:27:02.622Z,27.09
2022-09-06T09:31:06.795Z,27.25
2022-09-06T09:35:16.434Z,27.39
2022-09-06T09:39:18.304Z,27.51
2022-09-06T09:43:26.306Z,27.69
2022-09-06T09:47:32.774Z,27.92
2022-09-06T09:51:47.604Z,27.94
2022-09-06T09:55:56.309Z,27.85
2022-09-06T10:00:02.788Z,28.06
2022-09-06T10:08:34.385Z,28.30
2022-09-06T10:12:43.792Z,28.34
2022-09-06T10:16:45.822Z,28.53
2022-09-06T10:20:53.916Z,28.85
2022-09-06T10:25:06.030Z,29.23
2022-09-06T10:29:11.597Z,29.47
2022-09-06T10:33:28.177Z,29.65
2022-09-06T10:37:48.340Z,29.68
2022-09-06T10:42:05.989Z,29.64
2022-09-06T10:46:15.966Z,29.76
2022-09-06T10:50:17.800Z,30.03
2022-09-06T10:54:23.659Z,30.13
2022-09-06T10:58:29.781Z,30.26
2022-09-06T11:07:31.327Z,30.65
2022-09-06T11:11:40.465Z,30.60
2022-09-06T11:15:55.232Z,30.72
2022-09-06T11:20:13.906Z,30.95
2022-09-06T11:24:28.237Z,30.93
2022-09-06T11:28:37.353Z,31.05
2022-09-06T11:32:48.705Z,31.11
2022-09-06T11:36:57.511Z,31.29
2022-09-06T11:41:02.573Z,31.58
2022-09-06T11:45:04.168Z,32.05
2022-09-06T11:49:29.405Z,32.74
2022-09-06T11:53:34.225Z,33.40
2022-09-06T11:57:35.964Z,33.95
2022-09-06T12:01:38.883Z,34.30
2022-09-06T12:06:18.035Z,34.64
2022-09-06T12:10:46.955Z,34.96
2022-09-06T12:14:49.263Z,35.38
2022-09-06T12:18:50.779Z,35.74
2022-09-06T12:22:53.256Z,36.20
2022-09-06T12:27:16.371Z,35.96
2022-09-06T12:31:28.792Z,36.41
2022-09-06T12:39:58.843Z,37.10
2022-09-06T12:44:14.709Z,37.60
2022-09-06T12:48:28.624Z,37.74
2022-09-06T12:52:31.257Z,38.22
2022-09-06T12:56:36.616Z,38.32
2022-09-06T13:00:47.949Z,38.80
2022-09-06T13:04:53.723Z,39.35
2022-09-06T13:08:57.502Z,39.40
2022-09-06T13:12:59.515Z,39.69
2022-09-06T13:17:01.650Z,39.73
2022-09-06T13:21:06.297Z,40.31
2022-09-06T13:25:20.359Z,40.41
2022-09-06T13:29:24.773Z,40.75
2022-09-06T13:33:27.209Z,40.78
2022-09-06T13:37:35.574Z,40.67
2022-09-06T13:41:40.790Z,40.50
2022-09-06T13:45:42.478Z,40.62
2022-09-06T13:49:44.214Z,41.00
2022-09-06T13:53:45.929Z,40.48
2022-09-06T13:57:48.249Z,40.12
2022-09-06T14:01:58.918Z,40.22
2022-09-06T14:06:01.118Z,39.07
2022-09-06T14:10:02.903Z,37.76
2022-09-06T14:14:05.433Z,36.28
2022-09-06T14:18:09.536Z,35.23
2022-09-06T14:22:13.685Z,34.71
2022-09-06T14:26:15.778Z,34.12
2022-09-06T14:30:17.523Z,33.65
2022-09-06T14:34:19.236Z,33.55
2022-09-06T14:38:20.882Z,33.47
2022-09-06T14:42:24.768Z,33.74
2022-09-06T14:46:30.071Z,34.16
2022-09-06T14:50:31.767Z,34.49
2022-09-06T14:54:33.616Z,34.45
2022-09-06T14:58:37.557Z,34.82
2022-09-06T15:02:39.538Z,35.37
2022-09-06T15:06:44.969Z,34.72
2022-09-06T15:10:54.291Z,34.30
2022-09-06T15:14:55.955Z,33.89
2022-09-06T15:18:57.627Z,33.03
2022-09-06T15:23:24.348Z,32.27
2022-09-06T15:27:24.943Z,31.65
2022-09-06T15:31:27.440Z,31.32
2022-09-06T15:35:29.151Z,31.16
2022-09-06T15:39:30.919Z,30.90
2022-09-06T15:43:33.757Z,30.64
2022-09-06T15:47:35.474Z,30.37
2022-09-06T15:51:38.926Z,30.14
2022-09-06T15:55:56.235Z,29.95
2022-09-06T15:59:57.930Z,29.82
2022-09-06T16:04:03.865Z,29.70
2022-09-06T16:08:05.470Z,29.50
2022-09-06T16:12:07.167Z,29.34
2022-09-06T16:16:11.299Z,29.25
2022-09-06T16:20:12.963Z,29.15
2022-09-06T16:24:15.000Z,28.97
2022-09-06T16:28:16.570Z,28.86
2022-09-06T16:32:18.173Z,28.78
2022-09-06T16:36:21.530Z,28.62
2022-09-06T16:40:23.151Z,28.45
2022-09-06T16:44:24.910Z,28.24
2022-09-06T16:48:27.411Z,28.02
2022-09-06T16:52:30.173Z,27.77
2022-09-06T16:56:34.828Z,27.46
2022-09-06T17:00:41.221Z,26.93
2022-09-06T17:04:42.926Z,26.66
2022-09-06T17:08:45.167Z,26.35
2022-09-06T17:12:47.164Z,26.11
2022-09-06T17:17:07.567Z,25.85
2022-09-06T17:21:09.985Z,25.55
2022-09-06T17:25:12.330Z,25.31
2022-09-06T17:29:13.944Z,25.11
2022-09-06T17:33:17.758Z,24.88
2022-09-06T17:37:19.420Z,24.65
2022-09-06T17:41:24.776Z,24.47
2022-09-06T17:45:26.754Z,24.27
2022-09-06T17:49:28.461Z,24.01
2022-09-06T17:53:30.039Z,23.85
2022-09-06T17:57:32.769Z,23.56
2022-09-06T18:01:37.540Z,23.40
2022-09-06T18:05:39.788Z,23.30
2022-09-06T18:09:41.848Z,23.27
2022-09-06T18:13:44.721Z,23.19
2022-09-06T18:17:46.412Z,23.08
2022-09-06T18:21:48.606Z,22.98
2022-09-06T18:26:04.656Z,22.84
2022-09-06T18:30:06.549Z,22.66
2022-09-06T18:34:08.901Z,22.53
2022-09-06T18:38:11.438Z,22.39
2022-09-06T18:42:13.253Z,22.36
2022-09-06T18:46:14.982Z,22.29
2022-09-06T18:50:17.252Z,22.20
2022-09-06T18:54:19.460Z,22.13
2022-09-06T18:58:21.352Z,22.03
2022-09-06T19:02:23.616Z,22.02
2022-09-06T19:06:28.024Z,21.98
2022-09-06T19:10:29.650Z,21.94
2022-09-06T19:14:31.257Z,21.92
2022-09-06T19:18:34.267Z,21.88
2022-09-06T19:22:35.993Z,21.81
2022-09-06T19:26:41.587Z,21.75
2022-09-06T19:30:43.244Z,21.66
2022-09-06T19:34:44.872Z,21.54
2022-09-06T19:39:03.190Z,21.57
2022-09-06T19:43:05.499Z,21.61
2022-09-06T19:47:07.346Z,21.64
2022-09-06T19:51:09.737Z,21.63
2022-09-06T19:55:11.396Z,21.63
2022-09-06T19:59:14.722Z,21.68
2022-09-06T20:03:16.324Z,21.76
2022-09-06T20:07:17.977Z,21.76
2022-09-06T20:11:21.629Z,21.75
2022-09-06T20:15:23.255Z,21.72
2022-09-06T20:19:24.945Z,21.66
2022-09-06T20:23:28.917Z,21.62
2022-09-06T20:27:31.225Z,21.57
2022-09-06T20:31:34.241Z,21.51
2022-09-06T20:35:36.039Z,21.51
2022-09-06T20:39:37.646Z,21.51
2022-09-06T20:43:40.995Z,21.49
2022-09-06T20:47:42.652Z,21.55
2022-09-06T20:51:44.667Z,21.60
2022-09-06T20:55:56.056Z,21.60
2022-09-06T20:59:57.868Z,21.58
2022-09-06T21:04:00.701Z,21.56
2022-09-06T21:08:02.496Z,21.55
2022-09-06T21:12:04.704Z,21.58
2022-09-06T21:16:07.015Z,21.61
2022-09-06T21:20:09.210Z,21.60
2022-09-06T21:24:11.332Z,21.58
2022-09-06T21:28:13.000Z,21.54
2022-09-06T21:32:14.586Z,21.47
2022-09-06T21:36:18.724Z,21.37
2022-09-06T21:40:20.342Z,21.27
2022-09-06T21:44:21.918Z,21.18
2022-09-06T21:48:24.177Z,21.08
2022-09-06T21:52:25.806Z,21.00
2022-09-06T21:56:27.476Z,20.96
2022-09-06T22:00:29.128Z,20.99
2022-09-06T22:04:31.171Z,20.97
2022-09-06T22:08:32.767Z,20.95
2022-09-06T22:12:34.476Z,20.87
2022-09-06T22:16:37.982Z,20.73
2022-09-06T22:20:39.613Z,20.62
2022-09-06T22:24:41.377Z,20.46
2022-09-06T22:28:43.438Z,20.34
2022-09-06T22:32:45.056Z,20.20
2022-09-06T22:36:46.709Z,20.09
2022-09-06T22:40:48.400Z,20.00
2022-09-06T22:44:49.981Z,19.92
2022-09-06T22:48:52.142Z,19.86
2022-09-06T22:52:53.793Z,19.86
2022-09-06T22:56:55.439Z,19.82
2022-09-06T23:01:04.952Z,19.80
2022-09-06T23:05:06.937Z,19.79
2022-09-06T23:09:08.567Z,19.82
2022-09-06T23:13:11.376Z,19.83
2022-09-06T23:17:14.777Z,19.81
2022-09-06T23:21:19.388Z,19.80
2022-09-06T23:25:20.956Z,19.82
2022-09-06T23:29:23.040Z,19.81
2022-09-06T23:33:24.841Z,19.77
2022-09-06T23:37:26.581Z,19.72
2022-09-06T23:41:28.769Z,19.69
2022-09-06T23:45:30.426Z,19.65
2022-09-06T23:49:32.127Z,19.63
2022-09-06T23:53:34.008Z,19.62
2022-09-06T23:57:35.625Z,19.63
